Terminal Aerodrome Forecast
Issued by NWS

Home | Current Version | Previous Version | Graphics & Text | Print | Product List | Glossary Off
Versions: 1 2 3 4 5 6 7 8 9 10 11 12 13 14 15 16 17 18 19 20

239
FTUS43 KBIS 052320
TAFMOT
TAF
KMOT 052320Z 0600/0624 23008KT P6SM SCT200
     FM061200 23011KT P6SM BKN100
     FM061400 24012KT P6SM BKN120 WS020/29040KT
     FM061800 24018G27KT P6SM BKN200 WS020/27050KT
     FM062100 25026G36KT P6SM BKN110=

USA.gov is the U.S. government's official web portal to all federal, state and local government web resources and services.